createdAt,value
2018-07-11T00:01:24.748Z,90.10
2018-07-11T00:03:54.502Z,90.30
2018-07-11T00:06:24.328Z,90.20
2018-07-11T00:08:52.923Z,90.30
2018-07-11T00:11:21.392Z,90.30
2018-07-11T00:13:49.939Z,90.30
2018-07-11T00:16:18.668Z,90.30
2018-07-11T00:18:47.152Z,90.40
2018-07-11T00:21:15.699Z,90.30
2018-07-11T00:23:44.169Z,90.30
2018-07-11T00:26:12.752Z,90.40
2018-07-11T00:28:41.612Z,90.40
2018-07-11T00:31:10.139Z,90.30
2018-07-11T00:33:38.589Z,90.20
2018-07-11T00:38:35.345Z,90.30
2018-07-11T00:41:14.856Z,90.30
2018-07-11T00:43:43.393Z,90.30
2018-07-11T00:46:12.097Z,90.50
2018-07-11T00:48:40.636Z,90.60
2018-07-11T00:51:09.205Z,90.90
2018-07-11T00:53:37.940Z,91.00
2018-07-11T00:56:06.444Z,91.00
2018-07-11T00:58:38.408Z,91.00
2018-07-11T01:01:12.673Z,91.10
2018-07-11T01:03:42.653Z,91.10
2018-07-11T01:08:40.824Z,90.70
2018-07-11T01:11:17.229Z,90.70
2018-07-11T01:13:47.027Z,90.70
2018-07-11T01:16:16.602Z,90.70
2018-07-11T01:19:03.521Z,90.70
2018-07-11T01:21:33.069Z,90.70
2018-07-11T01:24:01.534Z,90.50
2018-07-11T01:26:32.324Z,90.40
2018-07-11T01:29:00.843Z,90.30
2018-07-11T01:31:29.356Z,90.40
2018-07-11T01:33:58.281Z,90.30
2018-07-11T01:36:27.197Z,90.30
2018-07-11T01:38:56.264Z,90.30
2018-07-11T01:41:24.769Z,90.40
2018-07-11T01:43:53.407Z,90.50
2018-07-11T01:46:21.914Z,90.80
2018-07-11T01:48:50.436Z,90.70
2018-07-11T01:51:19.001Z,90.80
2018-07-11T01:53:47.437Z,90.70
2018-07-11T01:56:15.956Z,90.90
2018-07-11T01:58:45.514Z,90.70
2018-07-11T02:01:15.137Z,90.60
2018-07-11T02:03:43.696Z,90.70
2018-07-11T02:06:12.333Z,90.70
2018-07-11T02:08:40.828Z,90.80
2018-07-11T02:11:09.368Z,90.80
2018-07-11T02:13:37.899Z,90.60
2018-07-11T02:16:06.418Z,90.60
2018-07-11T02:18:36.412Z,90.50
2018-07-11T02:21:05.990Z,90.50
2018-07-11T02:23:36.773Z,90.60
2018-07-11T02:26:05.480Z,90.40
2018-07-11T02:31:02.755Z,90.50
2018-07-11T02:33:31.333Z,90.50
2018-07-11T02:35:59.833Z,90.50
2018-07-11T02:38:28.300Z,90.70
2018-07-11T02:40:56.752Z,90.60
2018-07-11T02:43:25.279Z,90.50
2018-07-11T02:45:53.788Z,90.60
2018-07-11T02:48:22.301Z,90.40
2018-07-11T02:50:50.839Z,90.40
2018-07-11T02:53:21.377Z,90.50
2018-07-11T02:55:50.664Z,90.50
2018-07-11T02:58:19.241Z,90.40
2018-07-11T03:00:48.169Z,90.40
2018-07-11T03:03:16.929Z,90.30
2018-07-11T03:05:45.532Z,90.20
2018-07-11T03:08:15.453Z,90.20
2018-07-11T03:10:43.985Z,90.20
2018-07-11T03:13:12.576Z,90.30
2018-07-11T03:15:41.029Z,90.40
2018-07-11T03:18:09.585Z,90.50
2018-07-11T03:20:38.094Z,90.50
2018-07-11T03:23:06.629Z,90.50
2018-07-11T03:25:35.109Z,90.70
2018-07-11T03:28:03.596Z,90.70
2018-07-11T03:30:32.045Z,91.00
2018-07-11T03:33:00.583Z,90.90
2018-07-11T03:35:29.033Z,90.80
2018-07-11T03:37:57.485Z,90.70
2018-07-11T03:40:25.981Z,90.70
2018-07-11T03:42:54.609Z,90.80
2018-07-11T03:45:23.106Z,90.40
2018-07-11T03:47:51.636Z,90.40
2018-07-11T03:50:20.170Z,90.40
2018-07-11T03:52:48.696Z,90.20
2018-07-11T03:55:17.142Z,90.70
2018-07-11T03:57:45.710Z,90.70
2018-07-11T04:00:14.545Z,90.50
2018-07-11T04:02:42.996Z,90.70
2018-07-11T04:05:11.481Z,90.50
2018-07-11T04:07:40.017Z,90.20
2018-07-11T04:10:08.505Z,90.30
2018-07-11T04:12:36.930Z,90.20
2018-07-11T04:17:33.585Z,90.20
2018-07-11T04:20:02.105Z,90.10
2018-07-11T04:22:30.521Z,90.00
2018-07-11T04:24:59.041Z,89.90
2018-07-11T04:27:27.501Z,89.90
2018-07-11T04:29:56.025Z,90.00
2018-07-11T04:32:24.503Z,89.80
2018-07-11T04:34:53.061Z,89.80
2018-07-11T04:37:21.536Z,89.90
2018-07-11T04:39:50.042Z,90.10
2018-07-11T04:42:18.493Z,90.10
2018-07-11T04:44:47.049Z,90.20
2018-07-11T04:47:15.657Z,90.50
2018-07-11T04:49:44.893Z,90.70
2018-07-11T04:52:13.558Z,90.90
2018-07-11T04:54:42.077Z,91.00
2018-07-11T04:57:10.542Z,91.00
2018-07-11T04:59:39.001Z,90.90
2018-07-11T05:02:07.513Z,90.90
2018-07-11T05:04:36.275Z,90.60
2018-07-11T05:07:04.749Z,90.70
2018-07-11T05:09:33.224Z,90.50
2018-07-11T05:12:01.743Z,90.10
2018-07-11T05:14:30.285Z,89.60
2018-07-11T05:16:58.701Z,88.70
2018-07-11T05:19:27.185Z,89.40
2018-07-11T05:21:55.645Z,89.00
2018-07-11T05:24:24.092Z,89.00
2018-07-11T05:26:52.529Z,89.00
2018-07-11T05:29:20.977Z,89.10
2018-07-11T05:31:49.456Z,89.60
2018-07-11T05:34:17.941Z,89.50
2018-07-11T05:36:46.479Z,89.60
2018-07-11T05:39:15.148Z,87.70
2018-07-11T05:41:43.565Z,87.60
2018-07-11T05:44:12.047Z,87.40
2018-07-11T05:46:40.496Z,87.20
2018-07-11T05:49:08.961Z,86.90
2018-07-11T05:51:37.381Z,87.10
2018-07-11T05:54:05.854Z,86.60
2018-07-11T05:56:34.434Z,86.90
2018-07-11T05:59:02.884Z,86.90
2018-07-11T06:01:31.332Z,86.80
2018-07-11T06:03:59.796Z,86.80
2018-07-11T06:06:28.230Z,87.10
2018-07-11T06:08:56.693Z,87.10
2018-07-11T06:11:25.739Z,86.20
2018-07-11T06:13:54.751Z,85.50
2018-07-11T06:16:23.678Z,85.90
2018-07-11T06:18:52.091Z,84.00
2018-07-11T06:21:22.978Z,83.30
2018-07-11T06:23:51.425Z,83.50
2018-07-11T06:26:19.881Z,83.40
2018-07-11T06:28:48.334Z,83.80
2018-07-11T06:31:16.860Z,81.10
2018-07-11T06:33:45.309Z,81.30
2018-07-11T06:36:13.830Z,80.00
2018-07-11T06:38:42.275Z,76.20
2018-07-11T06:41:10.750Z,76.90
2018-07-11T06:43:39.208Z,77.20
2018-07-11T06:46:07.754Z,78.20
2018-07-11T06:48:36.365Z,79.10
2018-07-11T06:51:04.905Z,78.40
2018-07-11T06:53:33.351Z,79.20
2018-07-11T06:56:01.927Z,80.00
2018-07-11T06:58:30.337Z,79.20
2018-07-11T07:00:58.857Z,78.90
2018-07-11T07:03:27.358Z,79.00
2018-07-11T07:05:55.954Z,78.70
2018-07-11T07:08:24.386Z,79.20
2018-07-11T07:10:52.845Z,78.60
2018-07-11T07:13:21.286Z,77.60
2018-07-11T07:15:49.729Z,77.50
2018-07-11T07:18:18.213Z,78.20
2018-07-11T07:20:46.710Z,79.90
2018-07-11T07:23:15.187Z,77.70
2018-07-11T07:25:43.640Z,78.10
2018-07-11T07:28:12.092Z,78.10
2018-07-11T07:30:40.549Z,78.20
2018-07-11T07:33:09.029Z,78.20
2018-07-11T07:35:37.508Z,78.10
2018-07-11T07:38:05.979Z,75.10
2018-07-11T07:40:34.427Z,71.40
2018-07-11T07:43:02.872Z,71.80
2018-07-11T07:45:31.378Z,71.60
2018-07-11T07:48:01.171Z,73.10
2018-07-11T07:50:29.639Z,74.40
2018-07-11T07:52:58.284Z,73.10
2018-07-11T07:55:26.665Z,72.30
2018-07-11T07:57:55.313Z,70.10
2018-07-11T08:00:23.885Z,68.30
2018-07-11T08:02:52.384Z,68.80
2018-07-11T08:05:20.877Z,71.40
2018-07-11T08:07:49.353Z,66.00
2018-07-11T08:10:17.772Z,63.40
2018-07-11T08:12:46.317Z,62.90
2018-07-11T08:17:42.897Z,60.90
2018-07-11T08:20:11.326Z,61.20
2018-07-11T08:23:30.608Z,61.60
2018-07-11T08:26:10.416Z,61.60
2018-07-11T08:29:48.388Z,63.70
2018-07-11T08:32:36.971Z,64.50
2018-07-11T08:35:25.324Z,65.40
2018-07-11T08:40:11.360Z,64.60
2018-07-11T08:42:54.940Z,59.30
2018-07-11T08:46:32.060Z,59.30
2018-07-11T08:53:17.147Z,57.80
2018-07-11T08:56:31.512Z,59.20
2018-07-11T09:01:13.185Z,61.70
2018-07-11T09:06:00.917Z,61.80
2018-07-11T09:09:41.348Z,59.60
2018-07-11T09:13:23.989Z,59.10
2018-07-11T09:16:03.597Z,60.50
2018-07-11T09:18:39.617Z,59.90
2018-07-11T09:22:33.063Z,57.60
2018-07-11T09:25:01.487Z,57.00
2018-07-11T09:27:29.941Z,57.60
2018-07-11T09:29:58.417Z,55.00
2018-07-11T09:32:26.857Z,54.70
2018-07-11T09:34:55.353Z,54.70
2018-07-11T09:37:23.784Z,55.80
2018-07-11T09:39:52.269Z,58.20
2018-07-11T09:42:20.775Z,60.60
2018-07-11T09:44:49.325Z,64.00
2018-07-11T09:47:23.169Z,64.70
2018-07-11T09:49:51.666Z,66.30
2018-07-11T09:52:20.158Z,67.80
2018-07-11T09:54:48.657Z,68.20
2018-07-11T09:57:17.888Z,69.60
2018-07-11T09:59:46.436Z,70.30
2018-07-11T10:02:14.932Z,70.40
2018-07-11T10:04:43.422Z,71.00
2018-07-11T10:07:12.351Z,68.60
2018-07-11T10:09:40.902Z,66.80
2018-07-11T10:12:09.363Z,66.00
2018-07-11T10:14:37.876Z,63.80
2018-07-11T10:17:06.320Z,65.10
2018-07-11T10:19:34.833Z,64.90
2018-07-11T10:22:03.313Z,65.80
2018-07-11T10:24:31.793Z,65.50
2018-07-11T10:27:00.206Z,64.40
2018-07-11T10:29:29.036Z,64.80
2018-07-11T10:31:57.704Z,64.00
2018-07-11T10:34:26.181Z,64.30
2018-07-11T10:36:55.193Z,65.10
2018-07-11T10:39:23.689Z,65.10
2018-07-11T10:41:52.526Z,65.30
2018-07-11T10:44:20.977Z,64.30
2018-07-11T10:46:50.057Z,63.30
2018-07-11T10:49:18.682Z,65.20
2018-07-11T10:51:47.205Z,65.70
2018-07-11T10:54:15.768Z,67.00
2018-07-11T10:56:44.362Z,65.20
2018-07-11T10:59:13.240Z,64.00
2018-07-11T11:01:41.760Z,63.70
2018-07-11T11:04:10.192Z,64.00
2018-07-11T11:06:38.720Z,64.40
2018-07-11T11:09:07.466Z,64.90
2018-07-11T11:11:35.997Z,64.70
2018-07-11T11:14:04.465Z,64.70
2018-07-11T11:16:32.986Z,64.50
2018-07-11T11:19:01.485Z,64.10
2018-07-11T11:21:30.021Z,65.30
2018-07-11T11:23:58.557Z,65.80
2018-07-11T11:26:27.022Z,66.10
2018-07-11T11:28:55.473Z,66.20
2018-07-11T11:31:23.968Z,67.10
2018-07-11T11:33:52.421Z,67.30
2018-07-11T11:36:20.921Z,67.50
2018-07-11T11:38:49.337Z,67.80
2018-07-11T11:41:17.933Z,68.00
2018-07-11T11:43:46.454Z,68.20
2018-07-11T11:46:14.944Z,67.70
2018-07-11T11:48:43.461Z,68.20
2018-07-11T11:51:11.958Z,68.20
2018-07-11T11:53:40.446Z,68.50
2018-07-11T11:58:37.238Z,70.10
2018-07-11T12:01:05.835Z,70.10
2018-07-11T12:03:34.381Z,70.30
2018-07-11T12:06:02.870Z,69.90
2018-07-11T12:08:31.369Z,69.50
2018-07-11T12:10:59.860Z,69.50
2018-07-11T12:13:28.544Z,68.80
2018-07-11T12:15:57.197Z,69.10
2018-07-11T12:18:26.207Z,69.70
2018-07-11T12:20:57.184Z,68.40
2018-07-11T12:23:25.759Z,69.40
2018-07-11T12:26:09.041Z,69.90
2018-07-11T12:28:37.674Z,69.90
2018-07-11T12:31:06.509Z,70.00
2018-07-11T12:33:35.229Z,69.90
2018-07-11T12:36:03.801Z,69.50
2018-07-11T12:38:32.989Z,70.00
2018-07-11T12:41:01.582Z,70.50
2018-07-11T12:43:30.123Z,70.50
2018-07-11T12:48:32.172Z,70.20
2018-07-11T12:51:00.717Z,69.00
2018-07-11T12:53:29.781Z,68.70
2018-07-11T12:55:58.416Z,68.50
2018-07-11T12:58:27.576Z,69.50
2018-07-11T13:00:56.173Z,68.60
2018-07-11T13:03:25.049Z,68.60
2018-07-11T13:05:53.548Z,68.30
2018-07-11T13:08:22.493Z,69.80
2018-07-11T13:10:51.410Z,69.70
2018-07-11T13:13:20.274Z,69.20
2018-07-11T13:15:48.745Z,69.00
2018-07-11T13:18:17.367Z,69.80
2018-07-11T13:20:45.840Z,70.10
2018-07-11T13:23:14.352Z,70.00
2018-07-11T13:25:42.886Z,69.20
2018-07-11T13:28:11.316Z,69.40
2018-07-11T13:30:40.016Z,68.40
2018-07-11T13:33:08.487Z,67.30
2018-07-11T13:35:37.008Z,68.20
2018-07-11T13:38:05.486Z,68.60
2018-07-11T13:40:34.032Z,68.80
2018-07-11T13:43:02.517Z,68.30
2018-07-11T13:45:31.246Z,68.80
2018-07-11T13:48:02.104Z,67.60
2018-07-11T13:50:31.750Z,67.50
2018-07-11T13:53:00.713Z,68.00
2018-07-11T13:55:29.621Z,68.30
2018-07-11T13:58:00.035Z,67.70
2018-07-11T14:00:28.722Z,67.50
2018-07-11T14:02:57.230Z,67.70
2018-07-11T14:05:25.747Z,68.10
2018-07-11T14:07:55.233Z,68.70
2018-07-11T14:10:24.151Z,68.30
2018-07-11T14:12:52.697Z,68.20
2018-07-11T14:15:21.273Z,67.80
2018-07-11T14:17:49.893Z,67.60
2018-07-11T14:22:47.394Z,67.00
2018-07-11T14:25:16.885Z,67.80
2018-07-11T14:27:46.769Z,66.50
2018-07-11T14:30:15.245Z,66.60
2018-07-11T14:32:47.746Z,66.30
2018-07-11T14:35:17.059Z,66.30
2018-07-11T14:37:45.995Z,66.30
2018-07-11T14:40:14.572Z,67.30
2018-07-11T14:42:44.010Z,66.60
2018-07-11T14:45:12.712Z,66.60
2018-07-11T14:47:46.352Z,67.50
2018-07-11T14:50:14.893Z,67.40
2018-07-11T14:52:43.408Z,66.70
2018-07-11T14:55:11.930Z,67.30
2018-07-11T14:57:40.637Z,67.60
2018-07-11T15:00:09.112Z,67.50
2018-07-11T15:02:37.683Z,67.40
2018-07-11T15:05:06.551Z,67.70
2018-07-11T15:07:35.029Z,67.80
2018-07-11T15:10:03.560Z,68.10
2018-07-11T15:12:32.139Z,68.10
2018-07-11T15:15:00.778Z,68.40
2018-07-11T15:17:29.749Z,68.00
2018-07-11T15:22:26.913Z,68.90
2018-07-11T15:24:55.769Z,68.70
2018-07-11T15:27:24.533Z,68.80
2018-07-11T15:29:53.038Z,67.80
2018-07-11T15:32:21.861Z,68.60
2018-07-11T15:34:50.373Z,68.50
2018-07-11T15:37:18.886Z,68.80
2018-07-11T15:39:47.388Z,69.10
2018-07-11T15:42:15.896Z,68.80
2018-07-11T15:44:44.404Z,68.80
2018-07-11T15:47:13.256Z,69.40
2018-07-11T15:49:41.776Z,69.20
2018-07-11T15:52:11.220Z,69.50
2018-07-11T15:54:40.310Z,69.50
2018-07-11T15:57:09.046Z,69.80
2018-07-11T15:59:45.308Z,70.00
2018-07-11T16:02:13.963Z,70.00
2018-07-11T16:04:42.489Z,69.90
2018-07-11T16:07:11.004Z,70.50
2018-07-11T16:09:49.076Z,70.50
2018-07-11T16:14:45.953Z,69.90
2018-07-11T16:17:14.500Z,69.70
2018-07-11T16:19:43.047Z,69.80
2018-07-11T16:22:11.567Z,70.00
2018-07-11T16:24:40.057Z,69.70
2018-07-11T16:27:08.853Z,70.50
2018-07-11T16:29:37.369Z,70.30
2018-07-11T16:32:06.063Z,70.40
2018-07-11T16:34:34.606Z,70.20
2018-07-11T16:37:03.769Z,69.10
2018-07-11T16:39:32.414Z,69.50
2018-07-11T16:42:02.804Z,69.10
2018-07-11T16:44:31.399Z,68.80
2018-07-11T16:47:01.518Z,68.70
2018-07-11T16:49:30.606Z,68.60
2018-07-11T16:51:59.654Z,68.60
2018-07-11T16:54:28.157Z,69.50
2018-07-11T16:56:57.109Z,68.70
2018-07-11T16:59:33.880Z,69.50
2018-07-11T17:02:03.220Z,69.20
2018-07-11T17:04:32.452Z,69.20
2018-07-11T17:07:01.871Z,69.50
2018-07-11T17:09:35.968Z,69.10
2018-07-11T17:12:04.504Z,69.20
2018-07-11T17:14:33.052Z,68.80
2018-07-11T17:17:03.514Z,68.80
2018-07-11T17:19:45.421Z,68.90
2018-07-11T17:22:14.064Z,68.90
2018-07-11T17:24:46.803Z,68.60
2018-07-11T17:27:17.640Z,68.90
2018-07-11T17:29:46.239Z,69.10
2018-07-11T17:32:14.780Z,69.50
2018-07-11T17:34:43.270Z,69.90
2018-07-11T17:37:12.198Z,70.10
2018-07-11T17:39:48.865Z,69.80
2018-07-11T17:42:26.773Z,69.90
2018-07-11T17:45:01.587Z,69.20
2018-07-11T17:47:32.120Z,69.60
2018-07-11T17:50:04.388Z,68.90
2018-07-11T17:52:59.789Z,68.80
2018-07-11T17:55:33.710Z,69.50
2018-07-11T17:58:04.668Z,69.60
2018-07-11T18:00:39.926Z,69.90
2018-07-11T18:03:29.609Z,69.90
2018-07-11T18:06:07.345Z,70.30
2018-07-11T18:09:14.015Z,70.50
2018-07-11T18:11:57.652Z,70.60
2018-07-11T18:14:45.744Z,70.50
2018-07-11T18:17:29.197Z,70.50
2018-07-11T18:20:11.710Z,71.20
2018-07-11T18:22:53.582Z,71.50
2018-07-11T18:27:34.682Z,71.80
2018-07-11T18:33:17.210Z,72.60
2018-07-11T18:36:10.898Z,72.60
2018-07-11T18:38:50.556Z,72.90
2018-07-11T18:41:29.747Z,72.80
2018-07-11T18:44:09.365Z,73.10
2018-07-11T18:46:45.952Z,73.10
2018-07-11T18:49:23.565Z,73.80
2018-07-11T18:52:03.231Z,74.10
2018-07-11T18:54:44.049Z,74.40
2018-07-11T18:57:22.885Z,74.50
2018-07-11T19:00:16.321Z,74.90
2018-07-11T19:02:56.148Z,74.90
2018-07-11T19:05:33.205Z,75.10
2018-07-11T19:08:23.560Z,75.60
2018-07-11T19:11:04.132Z,76.00
2018-07-11T19:13:34.209Z,76.10
2018-07-11T19:16:11.894Z,76.30
2018-07-11T19:19:20.824Z,76.60
2018-07-11T19:21:57.121Z,76.70
2018-07-11T19:25:34.433Z,76.90
2018-07-11T19:28:17.341Z,77.10
2018-07-11T19:31:02.317Z,77.40
2018-07-11T19:33:40.869Z,77.40
2018-07-11T19:36:28.561Z,77.40
2018-07-11T19:39:07.800Z,77.60
2018-07-11T19:41:55.315Z,77.70
2018-07-11T19:44:39.204Z,77.70
2018-07-11T19:50:19.095Z,78.10
2018-07-11T19:52:58.976Z,78.20
2018-07-11T19:55:39.250Z,78.10
2018-07-11T19:58:07.745Z,78.30
2018-07-11T20:00:36.269Z,78.30
2018-07-11T20:03:04.755Z,78.20
2018-07-11T20:05:33.282Z,78.10
2018-07-11T20:08:01.900Z,77.80
2018-07-11T20:10:30.408Z,78.00
2018-07-11T20:12:58.918Z,78.00
2018-07-11T20:15:27.555Z,77.70
2018-07-11T20:17:55.924Z,77.70
2018-07-11T20:20:24.594Z,77.50
2018-07-11T20:22:53.153Z,77.40
2018-07-11T20:25:21.769Z,77.50
2018-07-11T20:27:50.324Z,77.40
2018-07-11T20:30:18.910Z,77.30
2018-07-11T20:32:47.384Z,77.30
2018-07-11T20:35:15.876Z,77.50
2018-07-11T20:37:44.395Z,77.50
2018-07-11T20:40:12.837Z,77.60
2018-07-11T20:42:41.469Z,77.70
2018-07-11T20:45:09.980Z,77.70
2018-07-11T20:47:38.481Z,77.70
2018-07-11T20:50:07.065Z,77.80
2018-07-11T20:52:35.487Z,78.10
2018-07-11T20:55:04.001Z,78.30
2018-07-11T20:57:32.481Z,78.30
2018-07-11T21:00:12.233Z,78.30
2018-07-11T21:03:01.275Z,78.30
2018-07-11T21:05:43.189Z,78.50
2018-07-11T21:08:22.673Z,78.30
2018-07-11T21:11:04.186Z,78.30
2018-07-11T21:13:43.798Z,78.30
2018-07-11T21:18:28.368Z,78.30
2018-07-11T21:20:56.785Z,78.40
2018-07-11T21:23:25.260Z,78.70
2018-07-11T21:25:53.699Z,78.90
2018-07-11T21:28:22.212Z,78.90
2018-07-11T21:30:50.833Z,79.00
2018-07-11T21:33:19.325Z,79.00
2018-07-11T21:35:47.746Z,78.90
2018-07-11T21:38:16.229Z,79.20
2018-07-11T21:40:44.724Z,79.40
2018-07-11T21:43:13.229Z,79.40
2018-07-11T21:45:41.754Z,79.20
2018-07-11T21:48:10.189Z,79.20
2018-07-11T21:50:38.669Z,79.40
2018-07-11T21:53:07.149Z,79.50
2018-07-11T21:58:03.791Z,79.90
2018-07-11T22:00:36.352Z,80.10
2018-07-11T22:03:05.676Z,80.20
2018-07-11T22:05:34.870Z,80.20
2018-07-11T22:08:04.601Z,80.10
2018-07-11T22:10:33.081Z,80.30
2018-07-11T22:13:01.801Z,80.30
2018-07-11T22:15:30.257Z,80.20
2018-07-11T22:18:09.975Z,80.30
2018-07-11T22:20:37.280Z,80.40
2018-07-11T22:23:04.873Z,80.60
2018-07-11T22:25:32.414Z,80.80
2018-07-11T22:28:00.201Z,80.90
2018-07-11T22:30:28.042Z,80.90
2018-07-11T22:32:55.588Z,80.90
2018-07-11T22:35:23.167Z,81.20
2018-07-11T22:37:50.465Z,81.20
2018-07-11T22:40:17.809Z,81.20
2018-07-11T22:42:45.143Z,81.30
2018-07-11T22:45:12.521Z,81.40
2018-07-11T22:47:39.872Z,81.50
2018-07-11T22:50:07.224Z,81.50
2018-07-11T22:52:34.573Z,81.70
2018-07-11T22:55:02.053Z,81.80
2018-07-11T22:57:29.359Z,81.80
2018-07-11T22:59:56.691Z,82.00
2018-07-11T23:02:23.993Z,82.10
2018-07-11T23:04:51.344Z,82.30
2018-07-11T23:07:18.652Z,82.30
2018-07-11T23:09:45.982Z,82.30
2018-07-11T23:12:13.290Z,82.50
2018-07-11T23:14:40.629Z,82.50
2018-07-11T23:17:08.785Z,82.70
2018-07-11T23:19:36.135Z,82.70
2018-07-11T23:22:03.437Z,82.70
2018-07-11T23:24:30.792Z,82.70
2018-07-11T23:29:25.741Z,82.80
2018-07-11T23:31:53.054Z,83.00
2018-07-11T23:34:20.386Z,83.10
2018-07-11T23:36:47.692Z,83.10
2018-07-11T23:39:15.025Z,83.30
2018-07-11T23:41:42.340Z,83.40
2018-07-11T23:44:09.656Z,83.30
2018-07-11T23:46:36.988Z,83.50
2018-07-11T23:49:04.309Z,83.80
2018-07-11T23:53:59.342Z,84.10
2018-07-11T23:56:26.673Z,84.20
2018-07-11T23:58:53.973Z,84.20
